Time;durP1;ratioP1;P1;durP2;ratioP2;P2;SDS_P1;SDS_P2;PMS_P1;PMS_P2;Temp;Humidity;BMP_temperature;BMP_pressure;BME280_temperature;BME280_humidity;BME280_pressure;Samples;Min_cycle;Max_cycle;Signal;HPM_P1;HPM_P2
2022/11/14 08:48:25;;;;;;;85.27;38.50;;;;;;;6.86;100.00;101532.72;5255247;54;47496;-66
2022/11/14 08:53:50;;;;;;;86.23;39.73;;;;;;;6.83;100.00;101521.47;5050464;56;1139089;-68
2022/11/14 08:59:13;;;;;;;86.73;38.83;;;;;;;6.91;100.00;101522.81;5035161;56;1143103;-67
2022/11/14 09:04:36;;;;;;;92.77;41.63;;;;;;;6.95;100.00;101523.07;5028079;56;1143083;-68
2022/11/14 09:10:00;;;;;;;85.95;37.55;;;;;;;6.96;100.00;101530.50;5007952;55;1143165;-69
2022/11/14 09:15:25;;;;;;;78.57;36.50;;;;;;;6.93;100.00;101518.34;4974756;56;1142873;-67
2022/11/14 09:20:49;;;;;;;80.28;37.40;;;;;;;6.96;100.00;101518.66;5020701;56;1143224;-66
2022/11/14 09:26:14;;;;;;;86.53;40.27;;;;;;;6.95;100.00;101503.81;5034743;56;1143497;-65
2022/11/14 09:31:37;;;;;;;69.37;34.27;;;;;;;7.01;100.00;101498.27;5034577;56;1142996;-66
2022/11/14 09:37:01;;;;;;;77.70;37.98;;;;;;;7.10;100.00;101493.88;4942369;56;1143148;-66
2022/11/14 09:43:15;;;;;;;89.70;41.40;;;;;;;7.15;100.00;101478.73;4943224;55;1142911;-65
2022/11/14 09:48:38;;;;;;;83.05;38.85;;;;;;;7.17;100.00;101493.99;4912396;57;1174257;-65
2022/11/14 09:54:12;;;;;;;66.10;33.60;;;;;;;7.21;100.00;101498.16;4979421;57;1143284;-68
2022/11/14 09:59:36;;;;;;;69.85;34.20;;;;;;;7.25;100.00;101486.56;4972173;56;1214275;-67
2022/11/14 10:05:31;;;;;;;66.10;32.33;;;;;;;7.23;100.00;101487.56;4902316;56;1143204;-65
2022/11/14 10:10:58;;;;;;;63.02;30.12;;;;;;;7.17;100.00;101492.67;5226030;54;1143108;-64
2022/11/14 10:16:37;;;;;;;64.40;33.35;;;;;;;7.23;100.00;101472.62;5239226;54;1142857;-67
2022/11/14 10:22:17;;;;;;;65.80;31.07;;;;;;;7.29;100.00;101474.13;5202071;55;1142925;-65
2022/11/14 10:28:08;;;;;;;62.00;29.30;;;;;;;7.22;100.00;101453.82;5234101;55;1152495;-64
2022/11/14 10:33:58;;;;;;;62.10;30.63;;;;;;;7.28;100.00;101450.91;5220819;55;1143009;-65
2022/11/14 10:39:41;;;;;;;68.00;33.90;;;;;;;7.31;100.00;101442.01;5221236;55;1143002;-66
2022/11/14 10:45:09;;;;;;;65.53;31.60;;;;;;;7.30;100.00;101437.67;5233828;55;1142988;-65
2022/11/14 10:51:09;;;;;;;76.60;36.17;;;;;;;7.32;100.00;101435.82;5198487;55;1143029;-67
2022/11/14 10:56:32;;;;;;;60.93;31.87;;;;;;;7.34;100.00;101412.89;5035326;57;1143104;-67
2022/11/14 11:01:58;;;;;;;72.00;34.27;;;;;;;7.37;100.00;101414.91;5170672;54;1143166;-68
2022/11/14 11:13:11;;;;;;;63.80;33.30;;;;;;;7.48;100.00;101396.44;5222857;54;1142910;-69
2022/11/14 11:18:36;;;;;;;64.25;30.00;;;;;;;7.50;100.00;101406.39;5151770;54;1143115;-65
2022/11/14 11:23:59;;;;;;;68.77;32.60;;;;;;;7.54;100.00;101394.78;5119356;55;1143171;-67
2022/11/14 11:29:22;;;;;;;83.35;40.92;;;;;;;7.63;100.00;101389.06;5128124;54;1143225;-67
2022/11/14 11:34:47;;;;;;;67.57;33.90;;;;;;;7.69;100.00;101388.73;5120733;55;1143187;-67
2022/11/14 11:40:20;;;;;;;64.47;32.00;;;;;;;7.70;100.00;101380.76;5163215;54;1143165;-66
2022/11/14 11:45:47;;;;;;;73.02;31.33;;;;;;;7.92;100.00;101362.53;5200108;54;1143011;-65
2022/11/14 11:51:19;;;;;;;66.07;33.63;;;;;;;8.26;100.00;101357.59;5157665;55;1143366;-65
2022/11/14 11:56:46;;;;;;;69.87;33.63;;;;;;;8.33;100.00;101354.58;5192849;54;1142887;-67
2022/11/14 12:02:26;;;;;;;60.73;30.47;;;;;;;8.32;100.00;101350.23;5205218;54;1142983;-68
2022/11/14 12:08:11;;;;;;;62.17;32.27;;;;;;;8.34;100.00;101361.55;5135348;55;1142831;-66
2022/11/14 12:13:51;;;;;;;61.93;31.73;;;;;;;8.31;100.00;101352.45;5101228;56;1142909;-65
2022/11/14 12:19:19;;;;;;;59.17;30.83;;;;;;;8.41;100.00;101350.19;5160531;55;1143096;-65
2022/11/14 12:25:32;;;;;;;57.43;29.63;;;;;;;8.79;100.00;101355.50;5202386;55;1150607;-65
2022/11/14 12:30:59;;;;;;;62.93;32.83;;;;;;;9.12;100.00;101332.92;5179638;55;1142866;-66
2022/11/14 12:36:29;;;;;;;59.50;30.30;;;;;;;9.46;100.00;101317.26;5162145;54;1142996;-66
2022/11/14 12:42:03;;;;;;;62.65;32.73;;;;;;;9.95;100.00;101317.34;5177498;55;1142867;-66
2022/11/14 12:47:28;;;;;;;62.33;31.57;;;;;;;10.27;100.00;101309.59;5204367;55;1143229;-66
2022/11/14 12:52:55;;;;;;;63.13;32.45;;;;;;;10.54;100.00;101309.64;5160848;55;1145147;-68
2022/11/14 12:58:44;;;;;;;57.75;29.98;;;;;;;10.89;100.00;101304.66;5032294;56;1145272;-65
2022/11/14 13:04:29;;;;;;;55.57;29.57;;;;;;;11.05;100.00;101304.02;5083513;55;1145296;-65
2022/11/14 13:10:27;;;;;;;56.13;29.92;;;;;;;11.20;100.00;101300.33;5084413;56;1145205;-68
2022/11/14 13:21:47;;;;;;;59.67;31.13;;;;;;;11.16;100.00;101282.95;5005599;56;1145200;-64
2022/11/14 13:27:32;;;;;;;51.93;29.80;;;;;;;11.23;100.00;101272.80;4978267;57;1145094;-67
2022/11/14 13:32:56;;;;;;;67.90;33.70;;;;;;;11.36;100.00;101277.63;4978870;57;1145081;-67
2022/11/14 13:38:57;;;;;;;53.45;28.98;;;;;;;11.55;100.00;101278.05;4979345;56;1145051;-66
2022/11/14 13:45:01;;;;;;;72.90;40.23;;;;;;;11.52;100.00;101271.64;5097994;56;1145535;-68
2022/11/14 13:50:33;;;;;;;62.90;33.80;;;;;;;11.13;100.00;101267.30;5039188;55;1145272;-67
2022/11/14 13:56:13;;;;;;;54.75;30.32;;;;;;;11.10;100.00;101266.17;5285375;54;1145152;-68
2022/11/14 14:02:01;;;;;;;59.30;33.50;;;;;;;11.20;100.00;101254.47;5174812;55;1145189;-69
2022/11/14 14:07:47;;;;;;;64.22;32.38;;;;;;;10.90;100.00;101257.40;5156695;54;1145163;-67
2022/11/14 14:13:24;;;;;;;54.87;29.93;;;;;;;10.45;100.00;101251.56;5114203;55;1145196;-67
2022/11/14 14:19:07;;;;;;;72.37;36.08;;;;;;;10.09;100.00;101240.67;5115234;56;1144986;-67
2022/11/14 14:24:52;;;;;;;59.20;30.67;;;;;;;9.79;100.00;101235.55;5118526;56;1145340;-69
2022/11/14 14:30:18;;;;;;;71.97;37.73;;;;;;;9.55;100.00;101233.98;5118697;55;1143181;-69
2022/11/14 14:35:53;;;;;;;64.20;35.92;;;;;;;9.36;100.00;101236.04;5137724;55;1143163;-69
2022/11/14 14:41:18;;;;;;;;;;;;;;;9.21;100.00;101232.55;5132147;55;1143079;-70
2022/11/14 14:46:42;;;;;;;60.90;31.65;;;;;;;9.11;100.00;101231.41;5172991;54;976150;-69
2022/11/14 14:52:32;;;;;;;89.77;53.70;;;;;;;9.04;100.00;101219.52;5192515;54;1140852;-68
2022/11/14 14:57:56;;;;;;;72.60;37.35;;;;;;;8.94;100.00;101211.31;5208282;54;1142839;-67
2022/11/14 15:03:22;;;;;;;85.03;41.60;;;;;;;8.88;100.00;101214.30;5178013;54;1143162;-68
2022/11/14 15:08:47;;;;;;;120.77;65.50;;;;;;;8.87;100.00;101207.80;5221104;54;1143086;-67
2022/11/14 15:14:17;;;;;;;89.20;45.57;;;;;;;8.83;100.00;101212.42;5207725;54;1145732;-66
2022/11/14 15:19:46;;;;;;;72.60;35.60;;;;;;;8.68;100.00;101199.68;5178108;55;1143246;-66
2022/11/14 15:25:17;;;;;;;67.15;33.58;;;;;;;8.57;100.00;101192.84;5184226;54;1142984;-65
2022/11/14 15:30:40;;;;;;;68.25;34.67;;;;;;;8.53;100.00;101194.45;5168402;54;1143076;-67
2022/11/14 15:36:18;;;;;;;74.22;35.30;;;;;;;8.50;100.00;101196.80;5169563;54;1143362;-67
2022/11/14 15:41:41;;;;;;;69.17;34.63;;;;;;;8.46;100.00;101195.27;5154121;55;1143149;-65
2022/11/14 15:47:08;;;;;;;71.80;35.70;;;;;;;8.38;100.00;101189.13;5172034;55;1143092;-66
2022/11/14 15:52:47;;;;;;;68.93;35.67;;;;;;;8.34;100.00;101188.92;5168598;54;1142875;-67
2022/11/14 15:58:12;;;;;;;65.60;34.00;;;;;;;8.28;100.00;101186.59;5135622;55;1142965;-66
2022/11/14 16:03:35;;;;;;;67.97;35.03;;;;;;;8.18;100.00;101188.06;5209044;54;1142828;-67
2022/11/14 16:08:59;;;;;;;73.58;37.36;;;;;;;8.13;100.00;101175.14;5144999;55;1143010;-68
2022/11/14 16:14:22;;;;;;;75.70;38.45;;;;;;;8.05;100.00;101180.02;5167900;54;1143221;-69
2022/11/14 16:19:45;;;;;;;;;;;;;;;7.99;100.00;101167.64;5222601;54;1142926;-68
2022/11/14 16:25:21;;;;;;;65.63;32.87;;;;;;;7.94;100.00;101165.29;5197405;55;976284;-65
2022/11/14 16:30:46;;;;;;;71.00;35.97;;;;;;;7.91;100.00;101166.77;5193895;55;1140851;-66
2022/11/14 16:36:12;;;;;;;63.23;34.15;;;;;;;7.87;100.00;101161.75;5204586;54;1143236;-68
2022/11/14 16:41:35;;;;;;;64.70;33.87;;;;;;;7.79;100.00;101156.94;5204788;54;1142922;-68
2022/11/14 16:46:59;;;;;;;68.73;34.30;;;;;;;7.73;100.00;101150.21;5205835;55;1143226;-67
2022/11/14 16:52:22;;;;;;;68.67;37.38;;;;;;;7.69;100.00;101143.88;5135207;55;1142904;-66
2022/11/14 16:57:45;;;;;;;67.82;35.28;;;;;;;7.62;100.00;101148.66;5119246;55;1143063;-67
2022/11/14 17:03:09;;;;;;;68.97;36.53;;;;;;;7.58;100.00;101144.95;5120819;55;1142900;-66
2022/11/14 17:08:32;;;;;;;80.90;44.65;;;;;;;7.60;100.00;101147.88;5173430;55;1143037;-66
2022/11/14 17:13:56;;;;;;;88.90;44.90;;;;;;;7.58;100.00;101152.84;5122006;56;1142892;-68
2022/11/14 17:19:19;;;;;;;78.87;42.43;;;;;;;7.47;100.00;101140.75;5140254;55;1143010;-65
2022/11/14 17:24:42;;;;;;;90.60;49.42;;;;;;;7.36;100.00;101144.80;5121615;55;1143314;-66
2022/11/14 17:30:08;;;;;;;84.90;41.88;;;;;;;7.28;100.00;101139.58;5171087;55;1143007;-66
2022/11/14 17:35:31;;;;;;;83.77;42.83;;;;;;;7.17;100.00;101135.36;5177249;55;1143044;-66
2022/11/14 17:40:57;;;;;;;87.62;43.68;;;;;;;7.11;100.00;101137.84;5177637;55;1142975;-69
2022/11/14 17:46:21;;;;;;;93.30;47.37;;;;;;;7.08;100.00;101138.47;5177307;55;1143412;-71
2022/11/14 17:51:46;;;;;;;92.12;45.43;;;;;;;6.99;100.00;101145.08;5159909;55;1143048;-67
2022/11/14 17:57:09;;;;;;;85.37;43.20;;;;;;;6.96;100.00;101143.92;5127374;55;1142987;-68
2022/11/14 18:02:32;;;;;;;81.95;43.70;;;;;;;6.95;100.00;101142.22;5119987;54;1143214;-69
2022/11/14 18:07:55;;;;;;;89.37;44.43;;;;;;;6.93;100.00;101133.55;5205711;54;1142869;-67
2022/11/14 18:13:19;;;;;;;99.62;52.53;;;;;;;6.89;100.00;101135.48;5230064;54;1142856;-69
2022/11/14 18:18:42;;;;;;;83.53;40.87;;;;;;;6.83;100.00;101134.98;5215476;54;1143069;-69
2022/11/14 18:24:08;;;;;;;82.83;43.03;;;;;;;6.81;100.00;101139.46;5193431;55;1143098;-70
2022/11/14 18:29:31;;;;;;;87.53;43.60;;;;;;;6.79;100.00;101134.28;5171182;54;1142978;-70
2022/11/14 18:34:54;;;;;;;82.47;42.60;;;;;;;6.72;100.00;101123.72;4976112;57;1142982;-66
2022/11/14 18:40:18;;;;;;;83.40;39.78;;;;;;;6.69;100.00;101119.47;5029102;56;1143210;-71
2022/11/14 18:45:41;;;;;;;85.37;43.13;;;;;;;6.69;100.00;101111.58;5088441;55;1143279;-68
2022/11/14 18:51:08;;;;;;;93.05;40.80;;;;;;;6.66;100.00;101112.19;5162012;55;1143146;-70
2022/11/14 18:56:32;;;;;;;88.47;41.57;;;;;;;6.65;100.00;101110.49;5208746;54;1143424;-65
2022/11/14 19:01:57;;;;;;;76.45;39.25;;;;;;;6.63;100.00;101105.31;5122802;55;1143162;-68
2022/11/14 19:07:20;;;;;;;77.87;41.33;;;;;;;6.64;100.00;101107.02;5107256;55;1142940;-66
2022/11/14 19:12:43;;;;;;;;;;;;;;;6.65;100.00;101105.23;5150231;55;1143067;-66
2022/11/14 19:18:06;;;;;;;97.70;47.93;;;;;;;6.59;100.00;101093.25;5134442;55;976201;-66
2022/11/14 19:23:30;;;;;;;111.17;58.20;;;;;;;6.58;100.00;101099.43;5095645;56;1140809;-65
2022/11/14 19:28:54;;;;;;;101.12;53.42;;;;;;;6.57;100.00;101105.62;5027166;56;1145031;-66
2022/11/14 19:34:17;;;;;;;98.73;44.13;;;;;;;6.57;100.00;101096.91;4978384;56;1144980;-65
2022/11/14 19:39:41;;;;;;;97.23;45.07;;;;;;;6.51;100.00;101086.24;4976837;56;1143192;-69
2022/11/14 19:45:05;;;;;;;90.55;44.35;;;;;;;6.50;100.00;101088.95;4978117;56;1142981;-67
2022/11/14 19:50:28;;;;;;;;;;;;;;;6.52;100.00;101085.78;5002973;56;1142909;-67
2022/11/14 19:55:51;;;;;;;108.33;53.87;;;;;;;6.51;100.00;101074.88;5078023;56;976227;-68
2022/11/14 20:01:21;;;;;;;94.97;43.95;;;;;;;6.48;100.00;101071.94;5063284;55;1142946;-66
2022/11/14 20:06:44;;;;;;;93.23;45.90;;;;;;;6.49;100.00;101070.17;5241704;54;1143351;-70
2022/11/14 20:12:08;;;;;;;89.75;42.48;;;;;;;6.49;100.00;101065.77;5217420;54;1142981;-68
2022/11/14 20:17:33;;;;;;;94.10;45.48;;;;;;;6.50;100.00;101054.78;5172063;54;1143026;-69
2022/11/14 20:22:56;;;;;;;121.70;61.53;;;;;;;6.52;100.00;101049.84;5270641;54;1143032;-67
2022/11/14 20:28:20;;;;;;;101.53;49.27;;;;;;;6.45;100.00;101035.31;5213876;54;1145189;-69
2022/11/14 20:33:46;;;;;;;92.53;43.47;;;;;;;6.46;100.00;101035.70;5115949;54;1145096;-69
2022/11/14 20:39:09;;;;;;;100.07;47.80;;;;;;;6.42;100.00;101030.21;5223963;55;1142997;-65
2022/11/14 20:44:32;;;;;;;;;;;;;;;6.39;100.00;101029.08;5242164;55;1145115;-70
2022/11/14 20:49:55;;;;;;;85.03;41.47;;;;;;;6.35;100.00;101015.25;5233390;54;984615;-65
2022/11/14 20:55:19;;;;;;;84.17;40.25;;;;;;;6.33;100.00;101024.13;5296095;54;1141038;-69
2022/11/14 21:00:42;;;;;;;92.27;46.05;;;;;;;6.34;100.00;101023.20;5295779;54;1143085;-67
2022/11/14 21:06:09;;;;;;;86.30;40.03;;;;;;;6.29;100.00;101018.64;5278647;54;1143409;-68
2022/11/14 21:11:32;;;;;;;90.33;41.93;;;;;;;6.26;100.00;101017.02;5295453;54;1143268;-68
2022/11/14 21:16:55;;;;;;;;;;;;;;;6.22;100.00;101008.94;5263167;54;1143102;-67
2022/11/14 21:22:18;;;;;;;104.27;48.87;;;;;;;6.18;100.00;101016.58;5189959;54;976101;-66
2022/11/14 21:27:41;;;;;;;92.78;43.30;;;;;;;6.11;100.00;101020.44;5264182;54;1143140;-69
2022/11/14 21:33:05;;;;;;;87.50;43.38;;;;;;;6.12;100.00;101012.09;5161485;55;1143018;-66
2022/11/14 21:38:28;;;;;;;106.50;51.70;;;;;;;6.07;100.00;101011.04;5132890;55;1142898;-66
2022/11/14 21:43:57;;;;;;;94.47;44.40;;;;;;;6.04;100.00;101007.25;5130160;55;1144966;-67
2022/11/14 21:49:20;;;;;;;101.93;48.20;;;;;;;6.03;100.00;100996.83;5208342;55;1142999;-70
2022/11/14 21:54:44;;;;;;;91.70;45.63;;;;;;;5.96;100.00;100992.33;5172994;55;1144874;-68
2022/11/14 22:00:08;;;;;;;105.43;47.70;;;;;;;6.02;100.00;100997.28;5139577;55;1143167;-66
2022/11/14 22:05:31;;;;;;;92.00;42.30;;;;;;;5.93;100.00;100985.49;5101476;55;1145124;-65
2022/11/14 22:10:57;;;;;;;90.95;43.52;;;;;;;5.87;100.00;100973.09;5106003;55;1143046;-68
2022/11/14 22:16:21;;;;;;;98.70;44.27;;;;;;;5.84;100.00;100968.84;5095723;55;1143025;-70
2022/11/14 22:21:44;;;;;;;117.00;53.17;;;;;;;5.81;100.00;100966.37;5134597;55;1142988;-68
2022/11/14 22:27:07;;;;;;;;;;;;;;;5.78;100.00;100966.55;5082641;56;1145128;-66
2022/11/14 22:32:30;;;;;;;99.43;42.50;;;;;;;5.76;100.00;100968.40;5130108;55;976108;-66
2022/11/14 22:37:53;;;;;;;110.40;48.97;;;;;;;5.73;100.00;100970.32;5137205;55;1141031;-67
2022/11/14 22:43:21;;;;;;;104.67;47.70;;;;;;;5.75;100.00;100971.95;5136273;56;1145180;-67
2022/11/14 22:48:42;;;;;;;103.20;45.97;;;;;;;5.72;100.00;100964.69;5138622;55;1143141;-68
2022/11/14 22:54:06;;;;;;;99.50;44.27;;;;;;;5.72;100.00;100966.00;5223879;55;1145102;-68
2022/11/14 22:59:30;;;;;;;97.80;45.83;;;;;;;5.76;100.00;100961.84;5223778;55;1143039;-69
2022/11/14 23:04:54;;;;;;;102.47;44.10;;;;;;;5.76;100.00;100957.91;5126884;55;1143311;-67
2022/11/14 23:10:17;;;;;;;110.83;47.27;;;;;;;5.69;100.00;100939.90;5177363;55;1145020;-68
2022/11/14 23:15:46;;;;;;;103.30;46.83;;;;;;;5.60;100.00;100934.20;5213988;55;1145199;-66
2022/11/14 23:21:23;;;;;;;101.30;46.23;;;;;;;5.60;100.00;100936.83;5143018;55;1145167;-66
2022/11/14 23:26:46;;;;;;;117.57;52.40;;;;;;;5.69;100.00;100935.97;5126652;54;1145020;-69
2022/11/14 23:32:09;;;;;;;117.47;56.00;;;;;;;5.73;100.00;100930.50;5127022;54;1145187;-66
2022/11/14 23:37:32;;;;;;;114.40;48.55;;;;;;;5.68;100.00;100922.00;5127377;54;1143055;-66
2022/11/14 23:42:55;;;;;;;89.22;42.70;;;;;;;5.66;100.00;100919.45;5127012;54;1145138;-66
2022/11/14 23:48:20;;;;;;;97.47;46.07;;;;;;;5.68;100.00;100915.44;5110265;55;1142970;-69
2022/11/14 23:53:45;;;;;;;98.70;46.40;;;;;;;5.69;100.00;100907.95;5072052;56;1143106;-68
2022/11/14 23:59:08;;;;;;;104.03;44.65;;;;;;;5.71;100.00;100903.48;5134824;56;1143079;-69
